Time;durP1;ratioP1;P1;durP2;ratioP2;P2;SDS_P1;SDS_P2;PMS_P1;PMS_P2;Temp;Humidity;BMP_temperature;BMP_pressure;BME280_temperature;BME280_humidity;BME280_pressure;Samples;Min_cycle;Max_cycle;Signal;HPM_P1;HPM_P2
2023/01/22 00:00:35;;;;;;;12.52;8.90;;;;;;;;;;5064708;28;20036;-41
2023/01/22 00:03:00;;;;;;;14.75;8.02;;;;;;;;;;5063646;28;20040;-41
2023/01/22 00:05:25;;;;;;;12.30;7.88;;;;;;;;;;5061993;28;20032;-41
2023/01/22 00:07:51;;;;;;;11.18;7.57;;;;;;;;;;5062318;28;20036;-41
2023/01/22 00:10:16;;;;;;;10.60;6.78;;;;;;;;;;5064970;28;20440;-42
2023/01/22 00:12:42;;;;;;;10.23;6.38;;;;;;;;;;5063082;28;20037;-41
2023/01/22 00:15:07;;;;;;;9.88;6.35;;;;;;;;;;5064503;28;20078;-42
2023/01/22 00:17:33;;;;;;;9.68;6.30;;;;;;;;;;5065763;28;20033;-43
2023/01/22 00:19:58;;;;;;;7.55;5.72;;;;;;;;;;5063214;28;20047;-41
2023/01/22 00:22:24;;;;;;;8.38;5.82;;;;;;;;;;5062437;28;20020;-41
2023/01/22 00:24:49;;;;;;;8.75;5.50;;;;;;;;;;5057961;28;20063;-41
2023/01/22 00:27:14;;;;;;;8.57;5.50;;;;;;;;;;5061248;28;20036;-42
2023/01/22 00:29:40;;;;;;;5.05;4.38;;;;;;;;;;5060135;28;20028;-41
2023/01/22 00:32:05;;;;;;;9.15;5.10;;;;;;;;;;5063110;28;20109;-41
2023/01/22 00:34:30;;;;;;;8.60;5.20;;;;;;;;;;5065221;28;20059;-41
2023/01/22 00:36:56;;;;;;;6.13;4.68;;;;;;;;;;5062475;28;20396;-41
2023/01/22 00:39:21;;;;;;;6.43;5.70;;;;;;;;;;5061128;28;20064;-41
2023/01/22 00:41:48;;;;;;;9.18;5.10;;;;;;;;;;5065786;28;20457;-41
2023/01/22 00:44:14;;;;;;;7.65;4.90;;;;;;;;;;5063469;28;20078;-41
2023/01/22 00:46:39;;;;;;;4.97;4.57;;;;;;;;;;5062744;28;20765;-42
2023/01/22 00:49:04;;;;;;;6.95;4.50;;;;;;;;;;5060233;28;20115;-41
2023/01/22 00:51:32;;;;;;;5.88;5.28;;;;;;;;;;5061694;28;20400;-44
2023/01/22 00:53:57;;;;;;;6.30;4.75;;;;;;;;;;5064468;28;20044;-41
2023/01/22 00:56:22;;;;;;;8.90;4.65;;;;;;;;;;5062645;28;20020;-41
2023/01/22 00:58:48;;;;;;;7.97;5.00;;;;;;;;;;5059725;28;20041;-43
2023/01/22 01:01:14;;;;;;;7.00;4.75;;;;;;;;;;5063256;28;20041;-41
2023/01/22 01:03:40;;;;;;;8.02;5.03;;;;;;;;;;5060829;28;20481;-41
2023/01/22 01:06:18;;;;;;;5.65;4.60;;;;;;;;;;5063379;28;20043;-41
2023/01/22 01:08:44;;;;;;;5.25;4.60;;;;;;;;;;5062715;28;20446;-41
2023/01/22 01:11:15;;;;;;;7.03;5.28;;;;;;;;;;5059976;28;20081;-41
2023/01/22 01:13:43;;;;;;;7.40;5.47;;;;;;;;;;5062958;28;20033;-41
2023/01/22 01:16:22;;;;;;;11.55;6.20;;;;;;;;;;5061170;28;20028;-41
2023/01/22 01:18:48;;;;;;;10.32;5.50;;;;;;;;;;5059892;28;20044;-41
2023/01/22 01:21:14;;;;;;;7.95;6.38;;;;;;;;;;5063408;28;20384;-41
2023/01/22 01:23:39;;;;;;;13.48;6.97;;;;;;;;;;5061199;28;20045;-43
2023/01/22 01:26:15;;;;;;;10.70;7.10;;;;;;;;;;5063930;28;20194;-41
2023/01/22 01:28:41;;;;;;;12.30;7.30;;;;;;;;;;5059411;28;20528;-41
2023/01/22 01:31:10;;;;;;;10.90;7.50;;;;;;;;;;5064045;28;20064;-41
2023/01/22 01:33:35;;;;;;;12.20;7.68;;;;;;;;;;5059825;28;20051;-43
2023/01/22 01:36:03;;;;;;;11.77;8.07;;;;;;;;;;5062559;28;20737;-41
2023/01/22 01:38:30;;;;;;;17.40;8.10;;;;;;;;;;5062178;28;20037;-41
2023/01/22 01:40:55;;;;;;;14.18;8.02;;;;;;;;;;5065627;28;20210;-41
2023/01/22 01:43:21;;;;;;;15.38;8.20;;;;;;;;;;5065796;28;20520;-41
2023/01/22 01:45:46;;;;;;;13.63;8.15;;;;;;;;;;5066510;28;20032;-45
2023/01/22 01:48:46;;;;;;;11.98;7.38;;;;;;;;;;5066321;28;20036;-41
2023/01/22 01:51:28;;;;;;;14.88;8.90;;;;;;;;;;5039936;28;20033;-41
2023/01/22 01:53:54;;;;;;;11.93;6.75;;;;;;;;;;5036695;28;20068;-41
2023/01/22 01:56:24;;;;;;;9.70;6.93;;;;;;;;;;5038234;28;20048;-41
2023/01/22 01:58:54;;;;;;;9.98;6.70;;;;;;;;;;5036215;28;20041;-41
2023/01/22 02:01:20;;;;;;;8.90;6.70;;;;;;;;;;5034213;28;20045;-41
2023/01/22 02:03:46;;;;;;;10.18;6.75;;;;;;;;;;5037344;28;20132;-46
2023/01/22 02:06:14;;;;;;;7.93;6.63;;;;;;;;;;5033757;28;20035;-40
2023/01/22 02:08:41;;;;;;;10.57;7.30;;;;;;;;;;5034742;28;20037;-41
2023/01/22 02:11:07;;;;;;;7.38;6.30;;;;;;;;;;5034550;28;20477;-41
2023/01/22 02:13:34;;;;;;;12.50;7.57;;;;;;;;;;5031009;28;20052;-41
2023/01/22 02:16:00;;;;;;;12.95;7.50;;;;;;;;;;5035136;28;20053;-41
2023/01/22 02:18:26;;;;;;;10.57;7.32;;;;;;;;;;5036210;28;20049;-40
2023/01/22 02:20:57;;;;;;;42.78;17.52;;;;;;;;;;5034738;28;20045;-41
2023/01/22 02:23:23;;;;;;;20.20;8.95;;;;;;;;;;5037838;28;20048;-41
2023/01/22 02:25:49;;;;;;;18.20;8.88;;;;;;;;;;5036319;28;20057;-41
2023/01/22 02:28:14;;;;;;;14.48;7.78;;;;;;;;;;5065766;28;20454;-41
2023/01/22 02:30:40;;;;;;;13.13;8.05;;;;;;;;;;5065661;28;20147;-40
2023/01/22 02:33:06;;;;;;;10.52;7.15;;;;;;;;;;5063868;28;20147;-41
2023/01/22 02:35:31;;;;;;;16.45;8.52;;;;;;;;;;5065884;28;20025;-46
2023/01/22 02:37:57;;;;;;;12.57;8.00;;;;;;;;;;5064900;28;20105;-41
2023/01/22 02:40:22;;;;;;;12.77;8.48;;;;;;;;;;5063068;28;20032;-41
2023/01/22 02:42:47;;;;;;;13.35;8.50;;;;;;;;;;5066448;28;20048;-41
2023/01/22 02:45:13;;;;;;;14.52;9.13;;;;;;;;;;5064662;28;20119;-41
2023/01/22 02:47:38;;;;;;;16.15;9.52;;;;;;;;;;5063980;28;20052;-42
2023/01/22 02:50:04;;;;;;;15.45;9.05;;;;;;;;;;5063781;28;20036;-41
2023/01/22 02:52:29;;;;;;;12.95;8.20;;;;;;;;;;5064773;28;20090;-41
2023/01/22 02:54:55;;;;;;;27.35;15.85;;;;;;;;;;5063392;28;20033;-41
2023/01/22 02:57:21;;;;;;;14.23;8.98;;;;;;;;;;5067004;28;20032;-41
2023/01/22 02:59:46;;;;;;;15.27;9.68;;;;;;;;;;5065529;28;20036;-43
2023/01/22 03:02:11;;;;;;;35.50;20.23;;;;;;;;;;5065482;28;20174;-40
2023/01/22 03:04:37;;;;;;;13.50;9.98;;;;;;;;;;5067226;28;20461;-40
2023/01/22 03:07:02;;;;;;;16.00;10.00;;;;;;;;;;5065621;28;20035;-41
2023/01/22 03:09:28;;;;;;;16.50;11.73;;;;;;;;;;5062146;28;20378;-41
2023/01/22 03:11:54;;;;;;;27.95;16.10;;;;;;;;;;5064839;28;20106;-41
2023/01/22 03:22:32;;;;;;;15.52;8.90;;;;;;;;;;5062759;28;20066;-41
2023/01/22 03:24:59;;;;;;;11.80;7.93;;;;;;;;;;5065266;28;20043;-42
2023/01/22 03:27:25;;;;;;;14.25;8.38;;;;;;;;;;5064094;28;20040;-41
2023/01/22 03:29:51;;;;;;;13.45;8.82;;;;;;;;;;5065146;28;20036;-44
2023/01/22 03:32:17;;;;;;;16.98;10.20;;;;;;;;;;5058549;28;20519;-42
2023/01/22 03:34:42;;;;;;;15.27;9.15;;;;;;;;;;5065811;28;20033;-44
2023/01/22 03:37:11;;;;;;;23.45;11.80;;;;;;;;;;5062709;28;20044;-43
2023/01/22 03:39:37;;;;;;;63.85;28.10;;;;;;;;;;5065215;28;20052;-41
2023/01/22 03:42:03;;;;;;;29.45;15.13;;;;;;;;;;5061671;28;20036;-47
2023/01/22 03:44:29;;;;;;;18.48;9.30;;;;;;;;;;5059775;28;20400;-44
2023/01/22 03:46:54;;;;;;;13.10;8.70;;;;;;;;;;5062749;28;20078;-40
2023/01/22 03:49:20;;;;;;;11.75;8.18;;;;;;;;;;5061653;28;20068;-40
2023/01/22 03:51:45;;;;;;;15.00;8.70;;;;;;;;;;5063195;28;20132;-41
2023/01/22 03:54:12;;;;;;;19.48;9.63;;;;;;;;;;5063736;28;20044;-41
2023/01/22 03:56:37;;;;;;;21.42;11.68;;;;;;;;;;5062997;28;20032;-42
2023/01/22 03:59:03;;;;;;;26.13;13.10;;;;;;;;;;5058083;28;20040;-40
2023/01/22 04:01:28;;;;;;;22.65;12.85;;;;;;;;;;5066113;28;20032;-48
2023/01/22 04:03:54;;;;;;;15.68;9.80;;;;;;;;;;5063615;28;20045;-40
2023/01/22 04:06:20;;;;;;;17.92;10.63;;;;;;;;;;5064594;28;20032;-40
2023/01/22 04:08:50;;;;;;;19.80;10.13;;;;;;;;;;5065699;28;20102;-41
2023/01/22 04:11:16;;;;;;;15.00;8.95;;;;;;;;;;5062821;28;20037;-42
2023/01/22 04:13:42;;;;;;;11.13;7.63;;;;;;;;;;5062837;28;20036;-41
2023/01/22 04:16:09;;;;;;;12.55;8.77;;;;;;;;;;5065348;28;20040;-45
2023/01/22 04:18:35;;;;;;;15.40;8.73;;;;;;;;;;5065042;28;20123;-41
2023/01/22 04:21:00;;;;;;;15.43;7.93;;;;;;;;;;5062804;28;20128;-41
2023/01/22 04:23:25;;;;;;;11.35;8.32;;;;;;;;;;5064896;28;20053;-41
2023/01/22 04:25:51;;;;;;;12.07;8.55;;;;;;;;;;5063280;28;20024;-41
2023/01/22 04:28:17;;;;;;;11.07;8.30;;;;;;;;;;5063406;28;20090;-45
2023/01/22 04:30:45;;;;;;;9.13;8.18;;;;;;;;;;5060451;28;20461;-41
2023/01/22 04:33:11;;;;;;;10.27;7.55;;;;;;;;;;5061665;28;20044;-46
2023/01/22 04:35:37;;;;;;;11.82;7.53;;;;;;;;;;5062984;28;20033;-41
2023/01/22 04:38:04;;;;;;;10.32;6.93;;;;;;;;;;5060836;28;20060;-41
2023/01/22 04:40:30;;;;;;;12.77;8.40;;;;;;;;;;5065328;28;20029;-40
2023/01/22 04:43:02;;;;;;;14.68;8.20;;;;;;;;;;5061216;28;20105;-41
2023/01/22 04:45:28;;;;;;;13.05;8.20;;;;;;;;;;5059473;28;20532;-41
2023/01/22 04:47:54;;;;;;;9.38;7.38;;;;;;;;;;5060006;28;20135;-41
2023/01/22 04:50:26;;;;;;;10.93;6.63;;;;;;;;;;5060405;28;20470;-41
2023/01/22 04:52:53;;;;;;;8.95;7.10;;;;;;;;;;5065019;28;20032;-41
2023/01/22 04:55:19;;;;;;;9.40;7.18;;;;;;;;;;5046762;28;20021;-41
2023/01/22 04:57:44;;;;;;;8.50;6.70;;;;;;;;;;5063566;28;20481;-41
2023/01/22 05:00:11;;;;;;;10.02;7.47;;;;;;;;;;5062637;28;20473;-41
2023/01/22 05:02:37;;;;;;;9.75;6.90;;;;;;;;;;5061978;28;20047;-41
2023/01/22 05:05:05;;;;;;;11.07;7.20;;;;;;;;;;5063292;28;20059;-41
2023/01/22 05:07:30;;;;;;;10.43;7.95;;;;;;;;;;5062010;28;20053;-42
2023/01/22 05:09:56;;;;;;;11.13;7.38;;;;;;;;;;5064619;28;20483;-41
2023/01/22 05:12:21;;;;;;;11.55;7.03;;;;;;;;;;5063102;28;20212;-41
2023/01/22 05:14:47;;;;;;;8.80;6.43;;;;;;;;;;5063768;28;20028;-41
2023/01/22 05:17:12;;;;;;;11.85;6.55;;;;;;;;;;5067208;28;20427;-46
2023/01/22 05:19:38;;;;;;;11.10;6.57;;;;;;;;;;5066671;28;20089;-41
2023/01/22 05:22:04;;;;;;;10.82;7.65;;;;;;;;;;5069282;28;20024;-41
2023/01/22 05:24:29;;;;;;;10.68;7.00;;;;;;;;;;5064669;28;20099;-45
2023/01/22 05:26:55;;;;;;;9.25;6.90;;;;;;;;;;5067557;28;20056;-42
2023/01/22 05:29:25;;;;;;;12.85;7.47;;;;;;;;;;5066283;28;20056;-45
2023/01/22 05:31:52;;;;;;;12.73;7.88;;;;;;;;;;5062171;28;20410;-41
2023/01/22 05:34:18;;;;;;;10.77;7.28;;;;;;;;;;5067385;28;20048;-41
2023/01/22 05:36:44;;;;;;;13.40;8.15;;;;;;;;;;5065883;28;20045;-41
2023/01/22 05:39:09;;;;;;;12.15;8.00;;;;;;;;;;5062310;28;20075;-41
2023/01/22 05:41:35;;;;;;;12.25;8.02;;;;;;;;;;5065154;28;20086;-41
2023/01/22 05:44:02;;;;;;;11.98;7.88;;;;;;;;;;5066580;28;20046;-41
2023/01/22 05:46:27;;;;;;;10.68;8.25;;;;;;;;;;5066995;28;20025;-41
2023/01/22 05:48:52;;;;;;;16.92;9.00;;;;;;;;;;5067330;28;20112;-41
2023/01/22 05:51:18;;;;;;;11.75;7.55;;;;;;;;;;5065158;28;20416;-41
2023/01/22 05:53:44;;;;;;;14.20;8.25;;;;;;;;;;5065754;28;20043;-41
2023/01/22 05:56:09;;;;;;;12.40;8.93;;;;;;;;;;5063540;28;20040;-42
2023/01/22 05:58:35;;;;;;;12.82;8.98;;;;;;;;;;5066484;28;20074;-41
2023/01/22 06:01:00;;;;;;;8.75;7.40;;;;;;;;;;5066531;28;20032;-41
2023/01/22 06:03:26;;;;;;;10.18;7.05;;;;;;;;;;5063839;28;20071;-41
2023/01/22 06:06:03;;;;;;;10.13;7.30;;;;;;;;;;5067902;28;20032;-41
2023/01/22 06:08:28;;;;;;;12.55;7.70;;;;;;;;;;5067975;28;20043;-41
2023/01/22 06:11:07;;;;;;;8.27;6.57;;;;;;;;;;5066249;28;20099;-49
2023/01/22 06:13:33;;;;;;;10.98;7.40;;;;;;;;;;5065069;28;20235;-40
2023/01/22 06:15:59;;;;;;;10.52;7.35;;;;;;;;;;5064785;28;20570;-40
2023/01/22 06:18:25;;;;;;;11.55;7.55;;;;;;;;;;5064414;28;20562;-42
2023/01/22 06:20:51;;;;;;;9.75;7.35;;;;;;;;;;5066036;28;20044;-41
2023/01/22 06:23:16;;;;;;;13.55;7.60;;;;;;;;;;5064211;28;20044;-44
2023/01/22 06:25:42;;;;;;;10.57;7.25;;;;;;;;;;5066333;28;20025;-40
2023/01/22 06:28:08;;;;;;;12.80;8.32;;;;;;;;;;5066700;28;20258;-44
2023/01/22 06:30:34;;;;;;;13.07;7.93;;;;;;;;;;5061706;28;20518;-46
2023/01/22 06:33:00;;;;;;;13.20;7.93;;;;;;;;;;5065640;28;20046;-43
2023/01/22 06:35:25;;;;;;;12.27;8.15;;;;;;;;;;5067786;28;20123;-40
2023/01/22 06:37:50;;;;;;;13.45;9.05;;;;;;;;;;5066909;28;20042;-40
2023/01/22 06:40:16;;;;;;;15.55;10.10;;;;;;;;;;5066862;28;20033;-40
2023/01/22 06:42:41;;;;;;;15.02;9.60;;;;;;;;;;5063433;28;20053;-40
2023/01/22 06:45:08;;;;;;;14.00;9.43;;;;;;;;;;5064685;28;20043;-40
2023/01/22 06:47:33;;;;;;;15.32;9.80;;;;;;;;;;5064932;28;20087;-43
2023/01/22 06:49:58;;;;;;;14.82;10.45;;;;;;;;;;5065560;28;20457;-40
2023/01/22 06:52:24;;;;;;;15.88;9.25;;;;;;;;;;5063827;28;20040;-40
2023/01/22 06:54:49;;;;;;;15.48;9.50;;;;;;;;;;5066839;28;20029;-40
2023/01/22 06:57:15;;;;;;;17.50;9.75;;;;;;;;;;5066356;28;20461;-41
2023/01/22 06:59:40;;;;;;;17.10;9.38;;;;;;;;;;5064531;28;20049;-41
2023/01/22 07:02:06;;;;;;;12.63;8.77;;;;;;;;;;5064029;28;20033;-41
2023/01/22 07:04:31;;;;;;;10.85;8.10;;;;;;;;;;5064703;28;20036;-40
2023/01/22 07:06:56;;;;;;;12.68;8.43;;;;;;;;;;5063583;28;20040;-41
2023/01/22 07:09:22;;;;;;;12.95;9.02;;;;;;;;;;5063892;28;20040;-47
2023/01/22 07:11:48;;;;;;;17.95;10.20;;;;;;;;;;5065093;28;20067;-40
2023/01/22 07:14:13;;;;;;;16.55;10.35;;;;;;;;;;5060086;28;20543;-40
2023/01/22 07:16:39;;;;;;;19.58;10.68;;;;;;;;;;5065910;28;20036;-46
2023/01/22 07:19:04;;;;;;;15.60;10.27;;;;;;;;;;5066641;28;20480;-40
2023/01/22 07:21:30;;;;;;;18.38;10.75;;;;;;;;;;5062615;28;20055;-40
2023/01/22 07:23:55;;;;;;;18.23;11.48;;;;;;;;;;5065106;28;20053;-40
2023/01/22 07:26:20;;;;;;;15.43;10.55;;;;;;;;;;5066786;28;20032;-40
2023/01/22 07:28:46;;;;;;;14.07;10.20;;;;;;;;;;5064837;28;20044;-40
2023/01/22 07:31:11;;;;;;;11.35;8.98;;;;;;;;;;5063649;28;20053;-40
2023/01/22 07:33:37;;;;;;;12.75;8.77;;;;;;;;;;5064835;28;20083;-41
2023/01/22 07:36:03;;;;;;;11.25;8.15;;;;;;;;;;5064557;28;20047;-40
2023/01/22 07:38:29;;;;;;;9.75;7.90;;;;;;;;;;5062788;28;20045;-40
2023/01/22 07:41:05;;;;;;;17.80;10.50;;;;;;;;;;5063636;28;20023;-40
2023/01/22 07:43:31;;;;;;;12.32;10.05;;;;;;;;;;5063939;28;20041;-40
2023/01/22 07:46:01;;;;;;;29.30;20.05;;;;;;;;;;5063118;28;20048;-40
2023/01/22 07:48:26;;;;;;;27.50;20.77;;;;;;;;;;5064991;28;20047;-44
2023/01/22 07:50:51;;;;;;;28.83;18.80;;;;;;;;;;5064060;28;20408;-40
2023/01/22 07:53:17;;;;;;;17.02;12.98;;;;;;;;;;5062605;28;20040;-41
2023/01/22 07:55:42;;;;;;;16.15;10.85;;;;;;;;;;5065197;28;20127;-40
2023/01/22 07:58:09;;;;;;;14.13;9.60;;;;;;;;;;5062862;28;20052;-40
2023/01/22 08:00:35;;;;;;;12.93;9.43;;;;;;;;;;5066109;28;20029;-40
2023/01/22 08:03:03;;;;;;;15.50;10.18;;;;;;;;;;5061460;28;20051;-40
2023/01/22 08:05:28;;;;;;;16.27;9.98;;;;;;;;;;5059615;28;20123;-40
2023/01/22 08:07:53;;;;;;;16.85;11.35;;;;;;;;;;5063794;28;23555;-41
2023/01/22 08:10:19;;;;;;;14.13;10.90;;;;;;;;;;5062999;28;20032;-41
2023/01/22 08:12:44;;;;;;;18.10;13.13;;;;;;;;;;5062015;28;20040;-40
2023/01/22 08:15:10;;;;;;;16.67;12.40;;;;;;;;;;5062795;28;20032;-44
2023/01/22 08:17:37;;;;;;;34.90;20.85;;;;;;;;;;5060121;28;20052;-40
2023/01/22 08:20:04;;;;;;;13.60;9.95;;;;;;;;;;5063292;28;20378;-45
2023/01/22 08:22:29;;;;;;;24.52;14.65;;;;;;;;;;5060660;28;20024;-41
2023/01/22 08:24:54;;;;;;;11.88;8.50;;;;;;;;;;5057958;28;20029;-41
2023/01/22 08:27:21;;;;;;;10.85;7.68;;;;;;;;;;5061420;28;20029;-40
2023/01/22 08:29:48;;;;;;;21.55;14.52;;;;;;;;;;5054581;28;20020;-41
2023/01/22 08:32:14;;;;;;;14.95;9.35;;;;;;;;;;5042448;28;20036;-40
2023/01/22 08:34:39;;;;;;;13.07;9.05;;;;;;;;;;5056944;28;20374;-41
2023/01/22 08:37:06;;;;;;;18.58;12.38;;;;;;;;;;5056415;28;20064;-41
2023/01/22 08:39:31;;;;;;;9.90;8.18;;;;;;;;;;5057513;28;20049;-41
2023/01/22 08:41:57;;;;;;;8.02;6.78;;;;;;;;;;5058481;28;20040;-41
2023/01/22 08:44:24;;;;;;;19.20;9.50;;;;;;;;;;5056828;28;20405;-41
2023/01/22 08:46:49;;;;;;;10.25;7.38;;;;;;;;;;5056483;28;20049;-41
2023/01/22 08:49:16;;;;;;;9.27;8.10;;;;;;;;;;5056571;28;20045;-41
2023/01/22 08:51:42;;;;;;;10.30;7.50;;;;;;;;;;5063701;28;20124;-42
2023/01/22 08:54:08;;;;;;;9.23;7.38;;;;;;;;;;5057575;28;20144;-41
2023/01/22 08:56:33;;;;;;;7.25;6.43;;;;;;;;;;5060731;28;20028;-41
2023/01/22 08:59:00;;;;;;;12.13;8.13;;;;;;;;;;5039891;28;20123;-41
2023/01/22 09:01:26;;;;;;;18.73;10.38;;;;;;;;;;5058406;28;23141;-41
2023/01/22 09:03:51;;;;;;;10.68;6.40;;;;;;;;;;5054149;28;20127;-40
2023/01/22 09:06:17;;;;;;;17.92;8.65;;;;;;;;;;5057057;28;20354;-41
2023/01/22 09:08:42;;;;;;;29.45;12.13;;;;;;;;;;5054071;28;20444;-41
2023/01/22 09:11:08;;;;;;;45.58;24.45;;;;;;;;;;5056513;28;20032;-41
2023/01/22 09:13:33;;;;;;;9.88;7.50;;;;;;;;;;5058304;28;20054;-42
2023/01/22 09:15:59;;;;;;;11.27;6.60;;;;;;;;;;5056994;28;20066;-44
2023/01/22 09:18:25;;;;;;;22.38;9.43;;;;;;;;;;5056120;28;20485;-41
2023/01/22 09:20:50;;;;;;;12.35;7.45;;;;;;;;;;5061719;28;20028;-41
2023/01/22 09:23:16;;;;;;;22.63;13.43;;;;;;;;;;5058304;28;20040;-41
2023/01/22 09:25:41;;;;;;;11.75;8.60;;;;;;;;;;5058535;28;20488;-41
2023/01/22 09:28:08;;;;;;;14.68;8.75;;;;;;;;;;5060717;28;20045;-42
2023/01/22 09:30:34;;;;;;;12.52;8.63;;;;;;;;;;5064818;28;20044;-41
2023/01/22 09:33:00;;;;;;;126.20;58.47;;;;;;;;;;5054535;28;20516;-41
2023/01/22 09:35:26;;;;;;;34.90;17.33;;;;;;;;;;5060143;28;20070;-42
2023/01/22 09:37:52;;;;;;;14.95;8.35;;;;;;;;;;5062846;28;20039;-41
2023/01/22 09:40:21;;;;;;;8.93;7.38;;;;;;;;;;5059133;28;20035;-42
2023/01/22 09:42:48;;;;;;;7.82;6.63;;;;;;;;;;5059696;28;20064;-41
2023/01/22 09:45:15;;;;;;;9.40;7.57;;;;;;;;;;5062585;28;20029;-42
2023/01/22 09:47:52;;;;;;;17.17;10.82;;;;;;;;;;5055633;28;20028;-43
2023/01/22 09:50:24;;;;;;;12.60;7.75;;;;;;;;;;5058258;28;20021;-41
2023/01/22 09:52:52;;;;;;;37.17;21.90;;;;;;;;;;5063038;28;20127;-41
2023/01/22 09:55:21;;;;;;;123.03;60.83;;;;;;;;;;5058573;28;20124;-41
2023/01/22 09:57:50;;;;;;;38.92;20.27;;;;;;;;;;5058519;28;20941;-42
2023/01/22 10:00:18;;;;;;;68.60;36.20;;;;;;;;;;5065159;28;20067;-41
2023/01/22 10:02:47;;;;;;;51.92;27.48;;;;;;;;;;5062395;28;20075;-42
2023/01/22 10:05:22;;;;;;;36.67;21.35;;;;;;;;;;5067572;28;20487;-42
2023/01/22 10:07:55;;;;;;;43.60;22.60;;;;;;;;;;5066798;28;20056;-42
2023/01/22 10:10:27;;;;;;;13.07;8.77;;;;;;;;;;5066538;28;20044;-41
2023/01/22 10:13:08;;;;;;;9.15;6.70;;;;;;;;;;5066694;28;20040;-43
2023/01/22 10:15:34;;;;;;;24.37;16.50;;;;;;;;;;5063269;28;20473;-41
2023/01/22 10:18:04;;;;;;;9.65;7.40;;;;;;;;;;5066951;28;20450;-42
2023/01/22 10:20:31;;;;;;;8.93;6.95;;;;;;;;;;5068525;28;20016;-41
2023/01/22 10:23:05;;;;;;;8.30;5.97;;;;;;;;;;5065246;28;20047;-41
2023/01/22 10:25:32;;;;;;;23.98;13.90;;;;;;;;;;5067983;28;20118;-41
2023/01/22 10:27:59;;;;;;;8.82;5.68;;;;;;;;;;5063383;28;20041;-41
2023/01/22 10:30:26;;;;;;;6.05;5.32;;;;;;;;;;5068957;28;20055;-41
2023/01/22 10:33:03;;;;;;;10.88;6.80;;;;;;;;;;5065777;28;20117;-42
2023/01/22 10:35:30;;;;;;;3.67;3.38;;;;;;;;;;5064319;28;20025;-41
2023/01/22 10:37:57;;;;;;;6.82;4.78;;;;;;;;;;5065038;28;20556;-41
2023/01/22 10:40:25;;;;;;;7.32;6.25;;;;;;;;;;5066228;28;20029;-41
2023/01/22 10:43:10;;;;;;;8.07;5.30;;;;;;;;;;5067218;28;20040;-41
2023/01/22 10:45:36;;;;;;;7.35;5.80;;;;;;;;;;5064848;28;20021;-42
2023/01/22 10:48:09;;;;;;;5.72;5.00;;;;;;;;;;5062575;28;20052;-41
2023/01/22 10:50:34;;;;;;;5.35;4.85;;;;;;;;;;5063804;28;20035;-41
2023/01/22 10:53:02;;;;;;;4.90;4.38;;;;;;;;;;5064446;28;20423;-41
2023/01/22 10:55:33;;;;;;;5.57;5.00;;;;;;;;;;5049162;28;20039;-41
2023/01/22 10:58:06;;;;;;;5.13;4.18;;;;;;;;;;5065898;28;20116;-41
2023/01/22 11:00:34;;;;;;;4.85;4.43;;;;;;;;;;5066796;28;20030;-46
2023/01/22 11:02:59;;;;;;;5.10;4.45;;;;;;;;;;5066512;28;20044;-42
2023/01/22 11:05:32;;;;;;;5.53;4.60;;;;;;;;;;5064403;28;20024;-44
2023/01/22 11:08:08;;;;;;;4.57;4.18;;;;;;;;;;5065008;28;20045;-42
2023/01/22 11:10:53;;;;;;;7.70;5.55;;;;;;;;;;5049469;28;20024;-42
2023/01/22 11:13:23;;;;;;;5.38;4.50;;;;;;;;;;5062818;28;20066;-41
2023/01/22 11:16:00;;;;;;;6.03;5.07;;;;;;;;;;5064380;28;20031;-44
2023/01/22 11:18:31;;;;;;;6.40;5.30;;;;;;;;;;5065368;28;20032;-41
2023/01/22 11:20:58;;;;;;;6.75;4.47;;;;;;;;;;5062728;28;20361;-43
2023/01/22 11:23:37;;;;;;;5.38;4.50;;;;;;;;;;5065058;28;20596;-43
2023/01/22 11:26:21;;;;;;;4.93;4.53;;;;;;;;;;5065151;28;20488;-42
2023/01/22 11:28:54;;;;;;;5.80;4.57;;;;;;;;;;5062789;28;20140;-41
2023/01/22 11:31:28;;;;;;;4.75;4.05;;;;;;;;;;5065557;28;20041;-41
2023/01/22 11:34:18;;;;;;;4.80;4.22;;;;;;;;;;5065548;28;20048;-41
2023/01/22 11:37:21;;;;;;;6.18;5.03;;;;;;;;;;5062966;28;20435;-46
2023/01/22 11:40:00;;;;;;;4.80;4.22;;;;;;;;;;5062807;28;20051;-41
2023/01/22 11:42:56;;;;;;;4.88;4.32;;;;;;;;;;5065638;28;20488;-42
2023/01/22 11:45:56;;;;;;;5.68;3.80;;;;;;;;;;5066891;28;20032;-41
2023/01/22 11:48:57;;;;;;;5.00;4.10;;;;;;;;;;5063935;28;20727;-42
2023/01/22 11:51:28;;;;;;;5.18;4.63;;;;;;;;;;5065280;28;20041;-41
2023/01/22 11:54:04;;;;;;;4.72;4.30;;;;;;;;;;5062797;28;20592;-41
2023/01/22 11:56:38;;;;;;;4.20;3.85;;;;;;;;;;5065301;28;20095;-41
2023/01/22 11:59:22;;;;;;;4.75;3.88;;;;;;;;;;5064218;28;20039;-41
2023/01/22 12:02:09;;;;;;;4.47;4.07;;;;;;;;;;5064306;28;20024;-41
2023/01/22 12:04:49;;;;;;;4.15;3.70;;;;;;;;;;5063824;28;20553;-41
2023/01/22 12:07:48;;;;;;;4.45;3.85;;;;;;;;;;5066008;28;20035;-42
2023/01/22 12:10:39;;;;;;;4.32;3.53;;;;;;;;;;5054671;28;20064;-42
2023/01/22 12:13:28;;;;;;;3.88;3.50;;;;;;;;;;5062162;28;20496;-41
2023/01/22 12:16:16;;;;;;;4.05;3.75;;;;;;;;;;5055880;28;20889;-42
2023/01/22 12:19:26;;;;;;;4.95;3.88;;;;;;;;;;5064742;28;20048;-42
2023/01/22 12:22:07;;;;;;;3.80;3.42;;;;;;;;;;5061806;28;20048;-41
2023/01/22 12:24:48;;;;;;;4.68;3.80;;;;;;;;;;5065245;28;20097;-43
2023/01/22 12:27:20;;;;;;;3.97;3.50;;;;;;;;;;5061614;28;20021;-41
2023/01/22 12:29:57;;;;;;;3.72;3.40;;;;;;;;;;5045891;28;20430;-41
2023/01/22 12:32:24;;;;;;;5.43;4.30;;;;;;;;;;5066597;28;20083;-42
2023/01/22 12:35:04;;;;;;;4.93;4.50;;;;;;;;;;5065002;28;20035;-43
2023/01/22 12:37:52;;;;;;;4.80;4.10;;;;;;;;;;5064119;28;20051;-42
2023/01/22 12:40:32;;;;;;;4.28;3.88;;;;;;;;;;5056374;28;20040;-42
2023/01/22 12:43:03;;;;;;;4.38;3.95;;;;;;;;;;5062379;28;21011;-42
2023/01/22 12:45:39;;;;;;;4.10;3.70;;;;;;;;;;5063730;28;20094;-42
2023/01/22 12:48:32;;;;;;;4.30;3.90;;;;;;;;;;5061753;28;20086;-42
2023/01/22 12:50:58;;;;;;;4.85;4.05;;;;;;;;;;5062180;28;20055;-42
2023/01/22 12:53:35;;;;;;;4.40;3.97;;;;;;;;;;5063971;28;20040;-44
2023/01/22 12:56:09;;;;;;;3.45;3.15;;;;;;;;;;5063507;28;20043;-42
2023/01/22 12:58:37;;;;;;;3.40;3.10;;;;;;;;;;5061701;28;20036;-41
2023/01/22 13:01:08;;;;;;;4.82;4.43;;;;;;;;;;5066407;28;20032;-41
2023/01/22 13:03:34;;;;;;;4.35;3.80;;;;;;;;;;5063587;28;20085;-41
2023/01/22 13:06:16;;;;;;;4.40;3.97;;;;;;;;;;5060580;28;20446;-41
2023/01/22 13:08:43;;;;;;;4.10;3.75;;;;;;;;;;5063249;28;20064;-41
2023/01/22 13:11:11;;;;;;;5.25;3.78;;;;;;;;;;5062755;28;20056;-41
2023/01/22 13:13:48;;;;;;;4.82;4.07;;;;;;;;;;5061574;28;20051;-42
2023/01/22 13:16:16;;;;;;;5.15;4.65;;;;;;;;;;5061805;28;20024;-41
2023/01/22 13:18:51;;;;;;;4.65;3.67;;;;;;;;;;5059840;28;20044;-41
2023/01/22 13:21:29;;;;;;;5.60;4.97;;;;;;;;;;5061945;28;20041;-42
2023/01/22 13:24:04;;;;;;;4.75;4.35;;;;;;;;;;5065089;28;20075;-42
2023/01/22 13:26:33;;;;;;;4.85;4.35;;;;;;;;;;5064965;28;20504;-41
2023/01/22 13:29:23;;;;;;;5.97;4.15;;;;;;;;;;5061379;28;20036;-42
2023/01/22 13:32:03;;;;;;;4.38;3.97;;;;;;;;;;5048618;28;20048;-42
2023/01/22 13:34:29;;;;;;;4.68;4.22;;;;;;;;;;5066924;28;20043;-41
2023/01/22 13:36:56;;;;;;;4.93;4.20;;;;;;;;;;5069696;28;20025;-42
2023/01/22 13:39:29;;;;;;;4.30;3.90;;;;;;;;;;5066692;28;20032;-41
2023/01/22 13:41:57;;;;;;;4.50;4.10;;;;;;;;;;5069570;28;20420;-41
2023/01/22 13:44:36;;;;;;;4.32;3.97;;;;;;;;;;5067457;28;20044;-41
2023/01/22 13:47:02;;;;;;;7.30;6.15;;;;;;;;;;5063014;28;20074;-43
2023/01/22 13:49:30;;;;;;;4.80;4.38;;;;;;;;;;5066774;28;20086;-42
2023/01/22 13:52:01;;;;;;;5.40;4.82;;;;;;;;;;5065861;28;20382;-41
2023/01/22 13:54:43;;;;;;;5.47;4.15;;;;;;;;;;5065891;28;20068;-42
2023/01/22 13:57:19;;;;;;;;;;;;;;;;;;5066506;28;20108;-41
2023/01/22 13:59:52;;;;;;;4.78;4.28;;;;;;;;;;5067387;28;19920;-41
2023/01/22 14:02:17;;;;;;;5.38;4.07;;;;;;;;;;5062865;28;20032;-41
2023/01/22 14:04:43;;;;;;;4.78;4.20;;;;;;;;;;5068373;28;20376;-44
2023/01/22 14:07:16;;;;;;;5.00;4.47;;;;;;;;;;5068583;28;20032;-41
2023/01/22 14:09:42;;;;;;;5.00;4.32;;;;;;;;;;5066824;28;20397;-41
2023/01/22 14:12:20;;;;;;;5.82;5.00;;;;;;;;;;5066346;28;20024;-42
2023/01/22 14:14:46;;;;;;;4.38;3.97;;;;;;;;;;5066299;28;20090;-41
2023/01/22 14:17:28;;;;;;;5.55;5.05;;;;;;;;;;5065342;28;20016;-41
2023/01/22 14:19:55;;;;;;;5.05;4.57;;;;;;;;;;5064403;28;20036;-42
2023/01/22 14:22:22;;;;;;;6.40;4.75;;;;;;;;;;5066374;28;20025;-42
2023/01/22 14:24:51;;;;;;;6.38;4.57;;;;;;;;;;5065726;28;20024;-42
2023/01/22 14:27:27;;;;;;;5.30;4.80;;;;;;;;;;5066033;28;20071;-42
2023/01/22 14:29:53;;;;;;;4.70;4.20;;;;;;;;;;5067313;28;20032;-42
2023/01/22 14:32:19;;;;;;;4.63;3.60;;;;;;;;;;5066320;28;20772;-46
2023/01/22 14:34:45;;;;;;;4.55;3.83;;;;;;;;;;5067875;28;20032;-47
2023/01/22 14:37:16;;;;;;;5.85;4.13;;;;;;;;;;5067417;28;20028;-39
2023/01/22 14:39:41;;;;;;;4.97;4.18;;;;;;;;;;5067629;28;20059;-41
2023/01/22 14:42:07;;;;;;;4.57;4.18;;;;;;;;;;5061731;28;20150;-42
2023/01/22 14:44:32;;;;;;;5.18;4.55;;;;;;;;;;5065133;28;20041;-41
2023/01/22 14:46:57;;;;;;;4.75;3.88;;;;;;;;;;5065113;28;20017;-41
2023/01/22 14:49:23;;;;;;;4.75;3.80;;;;;;;;;;5065019;28;20075;-41
2023/01/22 14:51:51;;;;;;;6.00;4.40;;;;;;;;;;5066644;28;20033;-41